createdAt,value
2019-02-18T00:02:44.876Z,144.27
2019-02-18T00:05:18.433Z,137.57
2019-02-18T00:08:04.599Z,145.23
2019-02-18T00:10:37.364Z,144.67
2019-02-18T00:13:49.772Z,111.63
2019-02-18T00:16:37.582Z,112.13
2019-02-18T00:19:11.169Z,125.23
2019-02-18T00:21:47.304Z,123.03
2019-02-18T00:24:19.744Z,126.23
2019-02-18T00:26:59.093Z,120.40
2019-02-18T00:29:59.292Z,126.17
2019-02-18T00:32:34.154Z,132.27
2019-02-18T00:35:17.867Z,130.77
2019-02-18T00:37:51.655Z,133.80
2019-02-18T00:40:30.379Z,131.03
2019-02-18T00:43:08.295Z,135.93
2019-02-18T00:45:45.476Z,141.00
2019-02-18T00:48:36.399Z,130.07
2019-02-18T00:51:15.694Z,133.33
2019-02-18T00:53:57.892Z,119.37
2019-02-18T00:59:30.815Z,133.57
2019-02-18T01:02:09.106Z,138.87
2019-02-18T01:04:40.161Z,133.83
2019-02-18T01:07:13.202Z,133.00
2019-02-18T01:09:51.741Z,133.30
2019-02-18T01:12:39.742Z,125.17
2019-02-18T01:15:24.001Z,133.50
2019-02-18T01:18:17.092Z,134.53
2019-02-18T01:20:58.199Z,145.07
2019-02-18T01:23:37.905Z,131.03
2019-02-18T01:26:30.657Z,124.53
2019-02-18T01:29:30.978Z,140.03
2019-02-18T01:32:12.236Z,125.43
2019-02-18T01:38:03.986Z,114.97
2019-02-18T01:41:04.484Z,127.90
2019-02-18T01:47:55.753Z,117.27
2019-02-18T01:50:39.665Z,127.17
2019-02-18T01:53:34.119Z,117.53
2019-02-18T01:56:23.767Z,119.47
2019-02-18T02:02:21.526Z,115.93
2019-02-18T02:07:56.445Z,113.07
2019-02-18T02:10:59.411Z,106.37
2019-02-18T02:13:37.194Z,107.93
2019-02-18T02:16:13.025Z,104.90
2019-02-18T02:18:56.109Z,106.20
2019-02-18T02:21:35.117Z,107.17
2019-02-18T02:24:18.798Z,100.43
2019-02-18T02:27:00.110Z,107.87
2019-02-18T02:30:05.332Z,112.13
2019-02-18T02:32:44.390Z,113.00
2019-02-18T02:36:08.235Z,118.43
2019-02-18T02:39:19.191Z,111.87
2019-02-18T02:42:22.630Z,101.73
2019-02-18T02:49:07.030Z,133.67
2019-02-18T02:55:18.374Z,120.40
2019-02-18T03:01:46.718Z,110.33
2019-02-18T03:08:19.394Z,128.63
2019-02-18T03:14:33.204Z,120.07
2019-02-18T03:17:58.065Z,114.87
2019-02-18T03:21:42.844Z,128.27
2019-02-18T03:24:11.565Z,119.17
2019-02-18T03:27:36.862Z,133.13
2019-02-18T03:30:58.970Z,124.20
2019-02-18T03:34:28.505Z,121.57
2019-02-18T03:41:02.861Z,126.03
2019-02-18T03:44:16.870Z,129.80
2019-02-18T03:47:44.450Z,135.07
2019-02-18T03:51:19.053Z,152.83
2019-02-18T03:58:34.145Z,145.87
2019-02-18T04:01:58.431Z,131.50
2019-02-18T04:09:23.450Z,154.00
2019-02-18T04:16:15.778Z,163.50
2019-02-18T04:25:06.616Z,186.33
2019-02-18T04:28:00.472Z,179.90
2019-02-18T04:30:42.231Z,170.33
2019-02-18T04:33:25.720Z,158.00
2019-02-18T04:36:19.479Z,158.87
2019-02-18T04:39:24.409Z,158.60
2019-02-18T04:42:09.353Z,168.43
2019-02-18T04:45:09.737Z,186.73
2019-02-18T04:48:00.349Z,190.53
2019-02-18T04:50:59.902Z,227.47
2019-02-18T04:57:41.327Z,786.87
2019-02-18T05:00:39.598Z,1096.87
2019-02-18T05:03:19.522Z,413.47
2019-02-18T05:06:02.879Z,197.00
2019-02-18T05:09:39.809Z,176.00
2019-02-18T05:12:05.543Z,173.90
2019-02-18T05:15:09.301Z,207.13
2019-02-18T05:18:27.650Z,324.43
2019-02-18T05:21:20.618Z,249.63
2019-02-18T05:24:25.479Z,209.53
2019-02-18T05:27:48.463Z,210.50
2019-02-18T05:30:58.131Z,284.07
2019-02-18T05:34:22.182Z,216.53
2019-02-18T05:39:43.010Z,184.30
2019-02-18T05:43:29.840Z,186.37
2019-02-18T05:46:21.194Z,182.60
2019-02-18T05:49:22.559Z,190.00
2019-02-18T05:52:09.506Z,211.73
2019-02-18T05:55:04.350Z,224.83
2019-02-18T05:58:39.697Z,273.63
2019-02-18T06:01:48.445Z,278.67
2019-02-18T06:04:42.726Z,224.00
2019-02-18T06:07:42.452Z,202.70
2019-02-18T06:11:07.878Z,201.00
2019-02-18T06:14:24.008Z,183.73
2019-02-18T06:17:29.333Z,179.97
2019-02-18T06:20:26.025Z,166.37
2019-02-18T06:24:10.602Z,170.57
2019-02-18T06:27:40.395Z,152.47
2019-02-18T06:30:19.033Z,158.73
2019-02-18T06:33:11.165Z,150.57
2019-02-18T06:35:39.613Z,143.53
2019-02-18T06:38:46.740Z,141.57
2019-02-18T06:41:40.099Z,154.80
2019-02-18T06:44:27.667Z,135.57
2019-02-18T06:47:34.065Z,143.10
2019-02-18T06:50:23.472Z,124.00
2019-02-18T06:53:39.366Z,117.93
2019-02-18T07:00:03.667Z,118.73
2019-02-18T07:30:28.878Z,100.73
2019-02-18T07:33:00.713Z,100.57
2019-02-18T07:35:31.200Z,100.47
2019-02-18T07:38:01.594Z,99.80
2019-02-18T07:40:32.072Z,105.37
2019-02-18T07:43:02.499Z,113.53
2019-02-18T07:45:32.894Z,109.27
2019-02-18T07:48:03.260Z,114.20
2019-02-18T07:50:33.725Z,111.33
2019-02-18T07:53:04.089Z,113.67
2019-02-18T07:55:34.487Z,111.67
2019-02-18T07:58:04.885Z,106.00
2019-02-18T08:00:35.331Z,102.20
2019-02-18T08:03:05.831Z,113.70
2019-02-18T08:05:36.188Z,110.60
2019-02-18T08:08:06.544Z,102.50
2019-02-18T08:10:36.931Z,99.50
2019-02-18T08:13:07.319Z,114.53
2019-02-18T08:15:37.679Z,113.43
2019-02-18T08:18:09.044Z,108.30
2019-02-18T08:20:39.411Z,110.33
2019-02-18T08:23:09.878Z,105.90
2019-02-18T08:25:40.280Z,104.20
2019-02-18T08:28:10.683Z,100.43
2019-02-18T08:30:41.041Z,102.37
2019-02-18T08:33:11.520Z,95.23
2019-02-18T08:35:41.873Z,93.03
2019-02-18T08:38:12.312Z,100.00
2019-02-18T08:40:42.666Z,100.40
2019-02-18T08:43:13.122Z,95.60
2019-02-18T08:45:43.474Z,97.23
2019-02-18T08:48:13.820Z,100.43
2019-02-18T08:50:44.179Z,89.80
2019-02-18T08:53:14.604Z,99.27
2019-02-18T08:55:44.991Z,86.70
2019-02-18T08:58:15.347Z,95.87
2019-02-18T09:00:45.772Z,96.20
2019-02-18T09:03:16.201Z,95.97
2019-02-18T09:05:46.584Z,90.07
2019-02-18T09:08:16.935Z,95.83
2019-02-18T09:10:47.338Z,97.93
2019-02-18T09:13:17.696Z,88.80
2019-02-18T09:15:48.096Z,86.03
2019-02-18T09:18:18.447Z,91.50
2019-02-18T09:20:48.808Z,93.20
2019-02-18T09:23:38.100Z,87.40
2019-02-18T09:26:08.528Z,83.40
2019-02-18T09:28:38.959Z,91.93
2019-02-18T09:31:09.315Z,88.57
2019-02-18T09:33:39.668Z,85.57
2019-02-18T09:36:10.598Z,81.60
2019-02-18T09:38:41.664Z,81.45
2019-02-18T09:41:12.020Z,79.70
2019-02-18T09:43:42.391Z,76.87
2019-02-18T09:46:13.428Z,77.80
2019-02-18T09:48:43.779Z,78.50
2019-02-18T09:51:14.164Z,80.37
2019-02-18T09:53:45.105Z,75.60
2019-02-18T09:56:15.564Z,76.95
2019-02-18T09:58:46.883Z,72.00
2019-02-18T10:01:17.816Z,76.17
2019-02-18T10:03:48.779Z,73.75
2019-02-18T10:06:19.143Z,74.90
2019-02-18T10:08:49.599Z,78.07
2019-02-18T10:11:20.588Z,77.97
2019-02-18T10:13:51.611Z,75.52
2019-02-18T10:16:21.974Z,77.32
2019-02-18T10:18:52.320Z,75.87
2019-02-18T10:21:23.244Z,81.82
2019-02-18T10:23:54.171Z,82.82
2019-02-18T10:26:26.118Z,79.05
2019-02-18T10:28:57.043Z,81.80
2019-02-18T10:31:28.004Z,85.87
2019-02-18T10:33:58.944Z,81.02
2019-02-18T10:36:29.879Z,82.08
2019-02-18T10:39:01.868Z,81.70
2019-02-18T10:41:34.520Z,82.80
2019-02-18T10:44:05.455Z,81.08
2019-02-18T10:46:36.558Z,78.62
2019-02-18T10:49:19.022Z,82.22
2019-02-18T10:51:40.216Z,80.92
2019-02-18T10:54:11.408Z,78.20
2019-02-18T10:56:42.436Z,80.15
2019-02-18T10:59:13.467Z,72.55
2019-02-18T11:01:44.821Z,72.50
2019-02-18T11:04:15.839Z,72.60
2019-02-18T11:06:46.844Z,79.27
2019-02-18T11:09:17.844Z,77.40
2019-02-18T11:11:48.780Z,63.90
2019-02-18T11:14:19.744Z,65.80
2019-02-18T11:16:50.737Z,66.00
2019-02-18T11:19:21.789Z,65.78
2019-02-18T11:21:52.808Z,71.57
2019-02-18T11:24:24.848Z,68.75
2019-02-18T11:26:56.171Z,68.45
2019-02-18T11:29:27.212Z,66.12
2019-02-18T11:31:58.249Z,68.87
2019-02-18T11:34:29.295Z,62.48
2019-02-18T11:37:00.307Z,67.65
2019-02-18T11:39:31.520Z,68.80
2019-02-18T11:42:02.548Z,66.25
2019-02-18T11:44:33.608Z,69.15
2019-02-18T11:47:04.632Z,69.90
2019-02-18T11:49:35.680Z,65.15
2019-02-18T11:52:06.812Z,69.05
2019-02-18T11:54:37.867Z,63.42
2019-02-18T11:57:08.912Z,70.40
2019-02-18T11:59:39.948Z,65.17
2019-02-18T12:02:10.977Z,65.75
2019-02-18T12:04:42.096Z,61.45
2019-02-18T12:07:13.100Z,65.55
2019-02-18T12:09:44.132Z,66.00
2019-02-18T12:12:15.140Z,64.95
2019-02-18T12:14:45.604Z,64.70
2019-02-18T12:17:20.443Z,67.20
2019-02-18T12:19:48.463Z,67.10
2019-02-18T12:22:18.883Z,65.80
2019-02-18T12:24:49.328Z,67.27
2019-02-18T12:27:19.812Z,64.27
2019-02-18T12:29:49.616Z,68.77
2019-02-18T12:32:20.180Z,64.03
2019-02-18T12:34:50.612Z,69.43
2019-02-18T12:37:21.096Z,72.97
2019-02-18T12:39:51.548Z,70.83
2019-02-18T12:42:21.997Z,78.30
2019-02-18T12:44:52.735Z,75.10
2019-02-18T12:47:23.209Z,68.10
2019-02-18T12:49:53.699Z,59.57
2019-02-18T12:52:24.179Z,72.23
2019-02-18T12:54:55.157Z,69.37
2019-02-18T12:57:25.712Z,65.97
2019-02-18T12:59:56.523Z,70.83
2019-02-18T13:02:27.059Z,61.83
2019-02-18T13:04:57.476Z,65.53
2019-02-18T13:07:27.913Z,68.70
2019-02-18T13:09:58.373Z,63.03
2019-02-18T13:12:28.816Z,73.93
2019-02-18T13:14:59.279Z,66.07
2019-02-18T13:17:29.759Z,64.07
2019-02-18T13:20:00.322Z,61.90
2019-02-18T13:22:30.857Z,61.90
2019-02-18T13:25:02.316Z,61.43
2019-02-18T13:27:32.775Z,57.33
2019-02-18T13:30:03.527Z,64.50
2019-02-18T13:32:34.272Z,58.97
2019-02-18T13:35:04.733Z,69.40
2019-02-18T13:37:35.178Z,57.90
2019-02-18T13:40:06.511Z,56.60
2019-02-18T13:42:36.967Z,59.60
2019-02-18T13:45:07.244Z,58.13
2019-02-18T13:47:37.609Z,60.60
2019-02-18T13:50:09.392Z,57.77
2019-02-18T13:52:39.831Z,58.63
2019-02-18T13:55:11.127Z,60.97
2019-02-18T13:57:42.008Z,59.47
2019-02-18T14:00:18.366Z,58.77
2019-02-18T14:02:49.387Z,59.50
2019-02-18T14:05:20.379Z,55.37
2019-02-18T14:07:50.857Z,53.70
2019-02-18T14:10:22.199Z,54.93
2019-02-18T14:12:52.655Z,54.83
2019-02-18T14:15:23.120Z,60.70
2019-02-18T14:17:53.627Z,61.17
2019-02-18T14:20:24.011Z,58.57
2019-02-18T14:22:54.500Z,52.90
2019-02-18T14:25:24.933Z,57.23
2019-02-18T14:27:55.403Z,52.23
2019-02-18T14:30:25.831Z,60.83
2019-02-18T14:32:56.263Z,53.90
2019-02-18T14:35:26.716Z,54.60
2019-02-18T14:37:57.160Z,51.13
2019-02-18T14:40:27.895Z,54.97
2019-02-18T14:42:58.331Z,58.80
2019-02-18T14:45:28.816Z,55.57
2019-02-18T14:47:59.305Z,58.10
2019-02-18T14:50:30.128Z,61.00
2019-02-18T14:53:00.763Z,68.67
2019-02-18T14:55:31.200Z,61.83
2019-02-18T14:58:00.980Z,57.83
2019-02-18T15:00:31.367Z,64.93
2019-02-18T15:03:02.887Z,58.13
2019-02-18T15:05:33.352Z,63.23
2019-02-18T15:08:03.891Z,60.00
2019-02-18T15:10:34.463Z,60.30
2019-02-18T15:13:04.908Z,61.30
2019-02-18T15:15:35.390Z,61.40
2019-02-18T15:18:06.123Z,56.87
2019-02-18T15:20:36.616Z,51.10
2019-02-18T15:23:07.043Z,59.07
2019-02-18T15:25:37.512Z,54.83
2019-02-18T15:28:07.987Z,58.97
2019-02-18T15:30:38.451Z,78.27
2019-02-18T15:33:08.883Z,78.83
2019-02-18T15:35:39.328Z,130.90
2019-02-18T15:38:09.804Z,149.90
2019-02-18T15:40:40.260Z,107.07
2019-02-18T15:43:10.700Z,96.07
2019-02-18T15:45:41.144Z,205.60
2019-02-18T15:48:11.647Z,118.83
2019-02-18T15:50:42.075Z,138.83
2019-02-18T15:53:12.862Z,108.33
2019-02-18T15:55:44.087Z,93.43
2019-02-18T15:58:14.868Z,98.67
2019-02-18T16:00:45.356Z,215.00
2019-02-18T16:03:15.839Z,622.40
2019-02-18T16:05:46.280Z,138.63
2019-02-18T16:08:16.784Z,299.30
2019-02-18T16:10:47.216Z,86.73
2019-02-18T16:13:17.733Z,59.03
2019-02-18T16:15:47.784Z,57.43
2019-02-18T16:18:19.728Z,59.73
2019-02-18T16:20:55.848Z,60.90
2019-02-18T16:23:26.640Z,53.93
2019-02-18T16:25:57.663Z,50.13
2019-02-18T16:28:28.705Z,54.60
2019-02-18T16:30:59.143Z,58.00
2019-02-18T16:33:30.799Z,71.90
2019-02-18T16:36:04.760Z,80.20
2019-02-18T16:38:35.285Z,92.43
2019-02-18T16:41:06.800Z,78.90
2019-02-18T16:43:39.102Z,82.43
2019-02-18T16:46:09.903Z,74.97
2019-02-18T16:48:41.364Z,79.97
2019-02-18T16:51:11.925Z,77.97
2019-02-18T16:53:43.519Z,89.27
2019-02-18T16:56:13.969Z,124.97
2019-02-18T16:58:44.812Z,147.67
2019-02-18T17:01:15.450Z,183.53
2019-02-18T17:03:45.908Z,203.93
2019-02-18T17:06:18.093Z,222.80
2019-02-18T17:08:47.924Z,443.70
2019-02-18T17:11:18.291Z,458.53
2019-02-18T17:13:48.127Z,338.10
2019-02-18T17:16:18.717Z,197.03
2019-02-18T17:18:48.923Z,230.67
2019-02-18T17:21:20.245Z,272.80
2019-02-18T17:23:50.741Z,255.17
2019-02-18T17:26:21.205Z,254.97
2019-02-18T17:28:52.016Z,235.30
2019-02-18T17:31:23.469Z,223.50
2019-02-18T17:33:54.281Z,223.10
2019-02-18T17:36:24.860Z,448.03
2019-02-18T17:38:55.320Z,238.27
2019-02-18T17:41:25.788Z,199.07
2019-02-18T17:43:56.512Z,170.67
2019-02-18T17:46:27.940Z,160.70
2019-02-18T17:48:59.400Z,166.13
2019-02-18T17:51:30.168Z,192.13
2019-02-18T17:54:00.651Z,169.13
2019-02-18T17:56:31.485Z,226.37
2019-02-18T17:59:01.955Z,243.57
2019-02-18T18:01:32.437Z,198.93
2019-02-18T18:04:02.873Z,147.30
2019-02-18T18:06:33.701Z,155.97
2019-02-18T18:09:04.527Z,156.83
2019-02-18T18:11:36.921Z,149.83
2019-02-18T18:14:07.371Z,179.23
2019-02-18T18:16:37.808Z,167.00
2019-02-18T18:19:09.492Z,175.33
2019-02-18T18:21:40.014Z,180.10
2019-02-18T18:24:10.485Z,185.80
2019-02-18T18:26:40.945Z,254.37
2019-02-18T18:29:12.381Z,228.50
2019-02-18T18:31:42.850Z,179.27
2019-02-18T18:34:13.303Z,153.60
2019-02-18T18:36:44.073Z,158.20
2019-02-18T18:39:14.511Z,173.00
2019-02-18T18:41:44.984Z,183.80
2019-02-18T18:44:15.436Z,188.63
2019-02-18T18:46:45.939Z,158.83
2019-02-18T18:49:16.376Z,176.07
2019-02-18T18:51:46.814Z,260.80
2019-02-18T18:54:17.495Z,280.97
2019-02-18T18:56:49.940Z,258.00
2019-02-18T18:59:20.091Z,163.13
2019-02-18T19:01:49.896Z,136.97
2019-02-18T19:04:20.305Z,128.47
2019-02-18T19:06:50.776Z,144.13
2019-02-18T19:09:21.240Z,201.83
2019-02-18T19:11:51.716Z,266.83
2019-02-18T19:14:22.204Z,218.70
2019-02-18T19:16:52.672Z,205.13
2019-02-18T19:19:22.453Z,152.13
2019-02-18T19:21:52.796Z,140.27
2019-02-18T19:24:23.324Z,119.97
2019-02-18T19:26:53.779Z,162.10
2019-02-18T19:29:24.505Z,126.70
2019-02-18T19:31:54.927Z,114.00
2019-02-18T19:34:25.413Z,393.77
2019-02-18T19:36:55.876Z,424.13
2019-02-18T19:39:26.647Z,307.20
2019-02-18T19:41:57.420Z,164.30
2019-02-18T19:44:27.860Z,190.03
2019-02-18T19:46:58.339Z,130.10
2019-02-18T19:49:28.796Z,146.00
2019-02-18T19:51:59.279Z,118.70
2019-02-18T19:54:29.695Z,140.90
2019-02-18T19:57:00.131Z,140.07
2019-02-18T19:59:30.921Z,151.07
2019-02-18T20:02:01.391Z,143.80
2019-02-18T20:04:31.836Z,161.73
2019-02-18T20:07:02.330Z,190.67
2019-02-18T20:09:32.774Z,166.13
2019-02-18T20:12:03.237Z,154.20
2019-02-18T20:14:35.376Z,151.10
2019-02-18T20:17:05.816Z,196.13
2019-02-18T20:19:36.185Z,136.33
2019-02-18T20:22:06.896Z,128.80
2019-02-18T20:24:40.413Z,237.07
2019-02-18T20:27:14.352Z,154.53
2019-02-18T20:29:45.836Z,142.00
2019-02-18T20:32:16.434Z,119.93
2019-02-18T20:34:46.960Z,138.13
2019-02-18T20:37:17.436Z,125.43
2019-02-18T20:39:47.977Z,107.70
2019-02-18T20:42:18.520Z,132.80
2019-02-18T20:44:48.940Z,118.20
2019-02-18T20:47:21.467Z,118.07
2019-02-18T20:49:52.143Z,142.30
2019-02-18T20:52:22.655Z,148.07
2019-02-18T20:54:53.192Z,156.77
2019-02-18T20:57:23.687Z,559.73
2019-02-18T20:59:54.543Z,297.90
2019-02-18T21:02:24.343Z,205.00
2019-02-18T21:04:54.755Z,164.53
2019-02-18T21:07:24.586Z,142.83
2019-02-18T21:09:55.012Z,129.50
2019-02-18T21:12:24.836Z,124.57
2019-02-18T21:14:55.279Z,122.50
2019-02-18T21:17:25.097Z,126.67
2019-02-18T21:19:55.558Z,134.77
2019-02-18T21:22:25.404Z,126.03
2019-02-18T21:24:55.759Z,129.07
2019-02-18T21:27:26.539Z,138.17
2019-02-18T21:29:57.092Z,139.23
2019-02-18T21:32:27.901Z,148.40
2019-02-18T21:35:00.285Z,160.27
2019-02-18T21:37:30.828Z,150.43
2019-02-18T21:40:01.501Z,158.73
2019-02-18T21:42:34.013Z,155.63
2019-02-18T21:45:05.287Z,139.17
2019-02-18T21:47:35.788Z,135.07
2019-02-18T21:50:07.191Z,134.97
2019-02-18T21:52:38.064Z,133.20
2019-02-18T21:55:11.011Z,138.63
2019-02-18T21:57:41.480Z,129.03
2019-02-18T22:00:17.885Z,126.87
2019-02-18T22:02:48.574Z,133.60
2019-02-18T22:05:19.659Z,131.93
2019-02-18T22:07:50.161Z,164.00
2019-02-18T22:10:20.652Z,170.13
2019-02-18T22:12:51.095Z,159.70
2019-02-18T22:15:21.623Z,186.90
2019-02-18T22:17:52.090Z,172.27
2019-02-18T22:20:22.971Z,174.97
2019-02-18T22:22:53.455Z,167.73
2019-02-18T22:25:25.039Z,179.63
2019-02-18T22:27:55.499Z,191.80
2019-02-18T22:30:28.218Z,158.20
2019-02-18T22:32:59.099Z,172.67
2019-02-18T22:35:29.595Z,154.07
2019-02-18T22:38:00.079Z,157.37
2019-02-18T22:40:30.543Z,149.27
2019-02-18T22:43:01.043Z,150.80
2019-02-18T22:45:31.541Z,139.33
2019-02-18T22:48:02.261Z,163.10
2019-02-18T22:50:32.703Z,164.20
2019-02-18T22:53:03.212Z,160.03
2019-02-18T22:55:34.439Z,153.60
2019-02-18T22:58:04.928Z,168.87
2019-02-18T23:00:59.576Z,146.10
2019-02-18T23:03:30.323Z,136.50
2019-02-18T23:06:00.814Z,144.67
2019-02-18T23:08:31.262Z,142.30
2019-02-18T23:11:04.287Z,141.47
2019-02-18T23:13:34.744Z,132.13
2019-02-18T23:16:05.503Z,140.43
2019-02-18T23:18:38.259Z,137.47
2019-02-18T23:21:08.720Z,126.87
2019-02-18T23:23:39.212Z,126.43
2019-02-18T23:26:09.712Z,128.73
2019-02-18T23:28:40.180Z,136.80
2019-02-18T23:31:10.641Z,138.33
2019-02-18T23:33:41.116Z,142.27
2019-02-18T23:36:11.584Z,138.77
2019-02-18T23:38:42.091Z,120.40
2019-02-18T23:41:12.548Z,124.97
2019-02-18T23:43:43.043Z,134.10
2019-02-18T23:46:13.795Z,136.60
2019-02-18T23:48:44.287Z,117.70
2019-02-18T23:51:14.759Z,135.07
2019-02-18T23:53:45.297Z,125.23
2019-02-18T23:56:15.733Z,130.63
2019-02-18T23:58:46.255Z,125.97
